Time;durP1;ratioP1;P1;durP2;ratioP2;P2;SDS_P1;SDS_P2;PMS_P1;PMS_P2;Temp;Humidity;BMP_temperature;BMP_pressure;BME280_temperature;BME280_humidity;BME280_pressure;Samples;Min_cycle;Max_cycle;Signal;HPM_P1;HPM_P2
2021/05/02 00:01:13;;;;;;;15.75;11.10;;;;;;;14.92;71.12;100874.66;1789086;80;21514;-68
2021/05/02 00:03:43;;;;;;;16.80;11.68;;;;;;;14.99;71.15;100867.95;1789099;80;21375;-69
2021/05/02 00:06:12;;;;;;;12.05;10.23;;;;;;;15.07;71.13;100868.69;1789217;80;21396;-69
2021/05/02 00:08:41;;;;;;;14.85;11.22;;;;;;;15.16;71.07;100864.03;1789109;80;21309;-69
2021/05/02 00:11:11;;;;;;;14.38;9.53;;;;;;;15.31;70.94;100849.66;1789044;80;20940;-69
2021/05/02 00:13:41;;;;;;;13.88;10.23;;;;;;;15.31;70.94;100849.66;1789155;79;21345;-68
2021/05/02 00:16:09;;;;;;;19.62;10.95;;;;;;;15.40;70.97;100853.89;1789051;79;21240;-68
2021/05/02 00:18:38;;;;;;;12.03;10.82;;;;;;;15.53;70.63;100844.89;1789025;80;20953;-68
2021/05/02 00:21:09;;;;;;;14.58;10.35;;;;;;;15.53;70.63;100844.89;1789098;79;21017;-69
2021/05/02 00:23:39;;;;;;;17.52;10.50;;;;;;;15.59;70.73;100839.63;1789170;79;20985;-68
2021/05/02 00:26:08;;;;;;;12.95;9.98;;;;;;;15.69;70.90;100839.74;1789197;80;21439;-68
2021/05/02 00:28:48;;;;;;;11.80;10.58;;;;;;;15.72;70.66;100840.39;1789071;80;21419;-69
2021/05/02 00:31:17;;;;;;;14.75;10.30;;;;;;;15.72;70.66;100840.39;1788998;79;21026;-69
2021/05/02 00:33:46;;;;;;;13.13;10.05;;;;;;;15.84;70.67;100843.03;1789089;80;20986;-68
2021/05/02 00:36:14;;;;;;;13.83;10.00;;;;;;;15.84;70.67;100843.03;1789137;80;20966;-67
2021/05/02 00:38:43;;;;;;;18.55;11.00;;;;;;;15.85;70.22;100836.77;1758912;80;20887;-68
2021/05/02 00:41:21;;;;;;;12.10;10.28;;;;;;;15.85;69.89;100838.95;1789041;80;21358;-69
2021/05/02 00:44:02;;;;;;;17.98;10.45;;;;;;;15.84;69.86;100834.61;1788214;80;20966;-69
2021/05/02 00:46:53;;;;;;;14.78;11.30;;;;;;;15.84;69.85;100839.90;1788657;79;20942;-68
2021/05/02 00:49:41;;;;;;;14.60;11.28;;;;;;;15.80;69.85;100833.65;1789335;80;21467;-68
2021/05/02 00:52:27;;;;;;;14.70;11.15;;;;;;;15.75;70.11;100832.69;1789427;80;20946;-69
2021/05/02 00:55:03;;;;;;;14.00;9.90;;;;;;;15.71;70.39;100841.33;1789272;80;21364;-69
2021/05/02 00:57:39;;;;;;;12.73;9.95;;;;;;;15.68;70.73;100828.33;1788664;80;20953;-68
2021/05/02 01:00:15;;;;;;;16.07;10.32;;;;;;;15.74;70.91;100830.53;1847806;76;22622;-68
2021/05/02 01:02:43;;;;;;;16.20;11.45;;;;;;;15.71;71.38;100829.44;1818023;77;20923;-69
2021/05/02 01:05:12;;;;;;;12.73;9.50;;;;;;;15.74;71.08;100833.67;1786828;79;21354;-69
2021/05/02 01:07:42;;;;;;;14.03;11.78;;;;;;;15.75;71.04;100823.44;1817965;79;21416;-68
2021/05/02 01:10:16;;;;;;;15.93;11.50;;;;;;;15.75;70.79;100822.11;1818675;78;20934;-68
2021/05/02 01:12:53;;;;;;;14.03;11.43;;;;;;;15.74;70.61;100813.84;1818864;77;20922;-66
2021/05/02 01:15:25;;;;;;;16.85;11.15;;;;;;;15.74;70.47;100815.16;1818082;79;21333;-69
2021/05/02 01:18:06;;;;;;;14.03;10.90;;;;;;;15.71;70.53;100815.38;1817905;78;21359;-68
2021/05/02 01:20:38;;;;;;;13.60;11.03;;;;;;;15.67;70.66;100812.12;1816763;79;20943;-68
2021/05/02 01:23:20;;;;;;;13.50;11.08;;;;;;;15.64;70.78;100814.98;1817940;79;21017;-67
2021/05/02 01:25:51;;;;;;;16.25;13.08;;;;;;;15.60;70.77;100815.35;1817949;79;20954;-70
2021/05/02 01:28:20;;;;;;;16.25;12.70;;;;;;;15.60;70.77;100815.35;1787737;79;21400;-69
2021/05/02 01:30:48;;;;;;;17.37;11.68;;;;;;;15.51;70.74;100802.36;1817975;77;21823;-69
2021/05/02 01:33:18;;;;;;;13.30;11.60;;;;;;;15.51;70.74;100802.36;1817966;79;20990;-69
2021/05/02 01:35:47;;;;;;;14.53;11.40;;;;;;;15.48;71.05;100805.26;1817914;79;21479;-69
2021/05/02 01:38:15;;;;;;;15.30;12.88;;;;;;;15.44;71.29;100798.52;1817908;79;21028;-69
2021/05/02 01:40:43;;;;;;;17.87;11.90;;;;;;;15.38;71.52;100798.50;1817943;77;20931;-69
2021/05/02 01:43:11;;;;;;;16.45;10.53;;;;;;;15.32;71.72;100797.68;1817945;77;21426;-68
2021/05/02 01:45:40;;;;;;;11.85;10.60;;;;;;;15.27;71.70;100791.89;1817911;79;20946;-69
2021/05/02 01:48:09;;;;;;;17.00;10.43;;;;;;;15.21;72.05;100790.58;1817815;79;20943;-68
2021/05/02 01:50:56;;;;;;;15.20;10.90;;;;;;;15.17;72.41;100789.13;1817914;79;21013;-68
2021/05/02 01:53:24;;;;;;;14.18;11.05;;;;;;;15.17;72.74;100791.77;1818054;79;20915;-68
2021/05/02 01:55:52;;;;;;;13.13;10.23;;;;;;;15.14;72.96;100790.69;1817977;78;22231;-69
2021/05/02 01:58:23;;;;;;;13.00;10.55;;;;;;;15.14;72.96;100790.69;1819218;78;21372;-69
2021/05/02 02:01:01;;;;;;;14.50;10.90;;;;;;;15.16;72.94;100793.19;1830387;78;21012;-69
2021/05/02 02:03:30;;;;;;;19.55;12.20;;;;;;;15.14;73.00;100786.73;1830346;78;20926;-70
2021/05/02 02:05:58;;;;;;;17.48;14.93;;;;;;;15.14;72.84;100786.73;1830405;77;21024;-67
2021/05/02 02:08:26;;;;;;;12.45;9.80;;;;;;;15.12;72.68;100792.13;1830338;78;21357;-69
2021/05/02 02:10:54;;;;;;;11.85;10.20;;;;;;;15.07;72.67;100788.12;1829940;78;20941;-69
2021/05/02 02:13:22;;;;;;;15.32;11.08;;;;;;;15.04;72.72;100779.97;1829930;78;20937;-68
2021/05/02 02:15:50;;;;;;;14.60;11.35;;;;;;;15.04;72.80;100782.61;1829704;78;21408;-68
2021/05/02 02:18:18;;;;;;;13.03;9.98;;;;;;;15.05;72.81;100781.67;1829748;77;20977;-69
2021/05/02 02:20:54;;;;;;;12.73;11.08;;;;;;;15.09;72.70;100775.16;1829763;78;21271;-68
2021/05/02 02:23:32;;;;;;;18.02;11.08;;;;;;;15.14;72.68;100778.80;1829769;78;20938;-69
2021/05/02 02:26:27;;;;;;;12.90;11.35;;;;;;;15.18;72.54;100781.55;1829761;78;20962;-67
2021/05/02 02:28:55;;;;;;;13.10;10.68;;;;;;;15.19;72.50;100788.53;1829746;78;21037;-68
2021/05/02 02:31:24;;;;;;;15.05;11.73;;;;;;;15.20;72.41;100784.08;1829823;78;20915;-67
2021/05/02 02:33:53;;;;;;;17.32;11.25;;;;;;;15.21;72.18;100788.42;1829803;78;21351;-69
2021/05/02 02:36:21;;;;;;;15.38;10.40;;;;;;;15.23;72.13;100778.55;1829682;78;20984;-67
2021/05/02 02:38:49;;;;;;;13.60;9.28;;;;;;;15.32;72.59;100777.38;1776775;78;21416;-68
2021/05/02 02:41:17;;;;;;;20.05;11.85;;;;;;;15.32;72.59;100777.38;1829745;78;20946;-70
2021/05/02 02:43:56;;;;;;;19.15;12.20;;;;;;;15.37;72.58;100784.95;1829798;77;20918;-68
2021/05/02 02:46:25;;;;;;;18.12;12.07;;;;;;;15.43;72.20;100780.97;1829769;78;21331;-69
2021/05/02 02:48:58;;;;;;;18.98;12.45;;;;;;;15.50;71.85;100788.80;1829758;78;20965;-68
2021/05/02 02:51:28;;;;;;;17.52;12.45;;;;;;;15.50;71.85;100788.80;1829775;78;21006;-69
2021/05/02 02:53:57;;;;;;;21.33;12.35;;;;;;;15.52;71.59;100780.28;1829837;77;21045;-67
2021/05/02 02:56:25;;;;;;;15.93;11.88;;;;;;;15.53;71.98;100779.30;1829788;78;20914;-69
2021/05/02 02:59:04;;;;;;;24.02;12.58;;;;;;;15.53;71.98;100779.30;1827599;78;22366;-68
2021/05/02 03:01:32;;;;;;;27.45;13.90;;;;;;;15.57;71.95;100783.39;1817290;77;20954;-67
2021/05/02 03:04:02;;;;;;;24.37;13.98;;;;;;;15.61;72.13;100777.39;1817270;77;20946;-68
2021/05/02 03:06:32;;;;;;;18.27;13.43;;;;;;;15.69;72.01;100770.52;1817397;79;20891;-70
2021/05/02 03:09:00;;;;;;;18.15;12.63;;;;;;;15.79;71.53;100775.13;1817449;79;21404;-68
2021/05/02 03:11:28;;;;;;;19.32;14.15;;;;;;;15.82;71.49;100769.09;1817292;79;21190;-68
2021/05/02 03:13:58;;;;;;;17.23;13.53;;;;;;;15.82;71.34;100766.94;1816433;79;20950;-70
2021/05/02 03:16:28;;;;;;;20.20;14.30;;;;;;;15.87;71.21;100762.11;1817322;77;21034;-70
2021/05/02 03:19:15;;;;;;;17.77;14.73;;;;;;;15.90;71.03;100766.69;1816459;79;21030;-68
2021/05/02 03:21:58;;;;;;;17.40;12.68;;;;;;;16.00;71.02;100756.20;1817306;78;20930;-69
2021/05/02 03:24:31;;;;;;;14.65;13.15;;;;;;;16.00;71.02;100756.20;1817297;77;21760;-70
2021/05/02 03:27:06;;;;;;;20.75;14.63;;;;;;;16.08;71.20;100753.78;1817351;78;20947;-69
2021/05/02 03:29:38;;;;;;;20.82;15.48;;;;;;;16.18;70.69;100759.64;1817349;77;20927;-69
2021/05/02 03:32:08;;;;;;;25.15;16.25;;;;;;;16.18;70.69;100759.64;1817417;78;20974;-68
2021/05/02 03:34:41;;;;;;;19.95;15.35;;;;;;;16.16;70.55;100760.62;1817319;79;20934;-69
2021/05/02 03:37:17;;;;;;;28.67;15.45;;;;;;;16.21;70.54;100774.80;1817407;78;22120;-69
2021/05/02 03:39:50;;;;;;;23.95;15.85;;;;;;;16.33;70.63;100771.14;1817181;79;20895;-69
2021/05/02 03:42:18;;;;;;;26.50;15.80;;;;;;;16.33;70.63;100771.14;1817347;77;20970;-69
2021/05/02 03:44:46;;;;;;;24.55;15.88;;;;;;;16.45;70.50;100766.66;1817250;79;21476;-69
2021/05/02 03:47:15;;;;;;;26.15;16.50;;;;;;;16.52;70.42;100772.30;1817283;78;20918;-69
2021/05/02 03:49:44;;;;;;;19.70;15.50;;;;;;;16.60;70.13;100763.70;1817257;79;21693;-69
2021/05/02 03:52:15;;;;;;;21.42;15.53;;;;;;;16.63;69.77;100769.59;1817191;78;20954;-67
2021/05/02 03:54:44;;;;;;;19.77;15.00;;;;;;;16.65;70.01;100772.95;1817308;78;20939;-67
2021/05/02 03:57:11;;;;;;;23.50;15.48;;;;;;;16.67;70.03;100790.85;1817215;77;20935;-68
2021/05/02 03:59:41;;;;;;;22.10;15.05;;;;;;;16.68;69.85;100785.09;1821598;77;21396;-69
2021/05/02 04:02:09;;;;;;;21.95;15.20;;;;;;;16.69;69.48;100795.54;1829711;78;21355;-70
2021/05/02 04:04:38;;;;;;;25.70;16.75;;;;;;;16.71;69.52;100800.23;1829605;78;20997;-68
2021/05/02 04:07:12;;;;;;;28.07;16.10;;;;;;;16.73;69.52;100802.27;1829621;78;21017;-69
2021/05/02 04:09:42;;;;;;;29.82;19.70;;;;;;;16.73;69.35;100806.23;1829785;78;21462;-69
2021/05/02 04:12:11;;;;;;;26.82;19.55;;;;;;;16.74;68.95;100803.10;1829698;78;20966;-68
2021/05/02 04:14:41;;;;;;;30.65;20.82;;;;;;;16.69;68.77;100802.16;1829641;78;20965;-68
2021/05/02 04:17:11;;;;;;;26.80;19.30;;;;;;;16.65;68.76;100808.70;1829590;77;21021;-68
2021/05/02 04:19:41;;;;;;;30.75;19.95;;;;;;;16.61;68.81;100805.08;1829756;78;20954;-67
2021/05/02 04:22:15;;;;;;;28.45;18.73;;;;;;;16.57;69.03;100807.16;1829656;78;20978;-67
2021/05/02 04:24:43;;;;;;;27.95;18.82;;;;;;;16.58;69.23;100812.80;1829825;78;20980;-68
2021/05/02 04:27:12;;;;;;;24.02;18.67;;;;;;;16.58;69.20;100812.80;1829690;77;21597;-68
2021/05/02 04:29:41;;;;;;;34.75;21.20;;;;;;;16.58;69.28;100806.19;1829541;78;20922;-67
2021/05/02 04:32:09;;;;;;;28.30;19.98;;;;;;;16.61;69.47;100803.30;1829630;77;20950;-70
2021/05/02 04:34:37;;;;;;;32.90;20.85;;;;;;;16.65;69.25;100801.22;1829786;78;20879;-69
2021/05/02 04:37:06;;;;;;;31.50;21.57;;;;;;;16.68;69.17;100805.80;1829688;78;20879;-69
2021/05/02 04:39:35;;;;;;;31.45;20.35;;;;;;;16.72;69.17;100809.03;1829551;77;21322;-70
2021/05/02 04:42:05;;;;;;;28.57;17.65;;;;;;;16.77;69.07;100805.02;1829577;78;20926;-68
2021/05/02 04:44:34;;;;;;;33.13;19.17;;;;;;;16.84;69.08;100808.03;1829668;78;20978;-68
2021/05/02 04:47:02;;;;;;;29.57;18.87;;;;;;;16.89;68.97;100807.64;1829570;78;20918;-68
2021/05/02 04:49:31;;;;;;;28.87;19.75;;;;;;;16.93;68.94;100812.55;1829685;78;21463;-67
2021/05/02 04:51:59;;;;;;;33.45;21.00;;;;;;;16.97;68.70;100810.50;1829640;78;22201;-69
2021/05/02 04:54:27;;;;;;;34.58;20.55;;;;;;;17.04;68.85;100816.95;1829650;78;21471;-68
2021/05/02 04:56:56;;;;;;;33.45;22.62;;;;;;;17.10;68.78;100809.83;1829736;78;21321;-69
2021/05/02 04:59:25;;;;;;;35.60;22.30;;;;;;;17.17;68.47;100810.14;1828191;77;21494;-69
2021/05/02 05:01:53;;;;;;;31.23;19.52;;;;;;;17.21;68.35;100807.59;1817811;79;21594;-68
2021/05/02 05:04:22;;;;;;;31.52;20.37;;;;;;;17.24;68.18;100799.37;1817850;79;21232;-69
2021/05/02 05:06:51;;;;;;;30.35;18.77;;;;;;;17.33;68.10;100801.23;1817435;79;21029;-69
2021/05/02 05:09:19;;;;;;;32.23;18.95;;;;;;;17.54;67.87;100795.05;1817293;79;20899;-71
2021/05/02 05:11:48;;;;;;;35.55;18.87;;;;;;;17.79;67.35;100792.44;1817164;79;21631;-67
2021/05/02 05:14:16;;;;;;;28.92;18.35;;;;;;;18.07;66.61;100792.67;1817163;79;20966;-67
2021/05/02 05:16:44;;;;;;;36.48;20.50;;;;;;;18.28;66.04;100784.62;1817173;79;21347;-69
2021/05/02 05:19:12;;;;;;;25.92;17.70;;;;;;;18.44;65.57;100794.20;1817180;78;20927;-68
2021/05/02 05:21:40;;;;;;;23.98;16.65;;;;;;;18.54;65.07;100791.53;1817166;78;21025;-69
2021/05/02 05:24:09;;;;;;;29.25;17.85;;;;;;;18.60;64.66;100793.64;1817114;79;21006;-69
2021/05/02 05:26:37;;;;;;;27.17;17.30;;;;;;;18.64;64.47;100799.03;1817187;78;21006;-69
2021/05/02 05:29:06;;;;;;;22.10;15.78;;;;;;;18.73;64.16;100793.37;1817147;79;21432;-70
2021/05/02 05:31:36;;;;;;;26.93;16.07;;;;;;;18.96;63.52;100789.94;1816218;77;20942;-68
2021/05/02 05:34:04;;;;;;;24.23;17.35;;;;;;;19.23;62.95;100786.52;1817119;77;20959;-68
2021/05/02 05:36:33;;;;;;;23.90;15.28;;;;;;;19.61;62.09;100787.39;1817140;79;21623;-70
2021/05/02 05:39:02;;;;;;;19.90;13.70;;;;;;;20.02;60.80;100784.73;1817162;77;20923;-69
2021/05/02 05:41:30;;;;;;;23.47;15.40;;;;;;;20.33;59.80;100787.55;1817132;78;21389;-70
2021/05/02 05:43:58;;;;;;;25.70;15.45;;;;;;;20.70;58.61;100786.10;1817136;77;21388;-68
2021/05/02 05:46:26;;;;;;;21.42;15.00;;;;;;;21.15;57.79;100783.76;1817269;77;20895;-68
2021/05/02 05:48:55;;;;;;;19.82;13.75;;;;;;;21.69;56.36;100787.57;1817246;77;20915;-69
2021/05/02 05:51:23;;;;;;;24.63;13.53;;;;;;;22.19;54.70;100783.20;1817348;79;21325;-69
2021/05/02 05:53:51;;;;;;;20.45;13.48;;;;;;;22.61;54.11;100771.59;1817297;77;21193;-69
2021/05/02 05:56:19;;;;;;;23.47;14.05;;;;;;;22.96;53.74;100764.55;1817205;79;21006;-68
2021/05/02 05:58:48;;;;;;;17.27;12.58;;;;;;;23.23;52.23;100759.84;1817260;79;21423;-67
2021/05/02 06:01:16;;;;;;;17.05;12.63;;;;;;;23.56;51.87;100764.59;1817148;77;20923;-67
2021/05/02 06:03:45;;;;;;;16.93;11.53;;;;;;;23.88;50.50;100756.60;1817270;77;20922;-68
2021/05/02 06:06:14;;;;;;;20.57;12.15;;;;;;;24.25;49.53;100756.39;1817361;79;21195;-68
2021/05/02 06:08:42;;;;;;;18.82;12.28;;;;;;;24.64;48.81;100754.95;1817256;77;20927;-67
2021/05/02 06:11:11;;;;;;;18.45;11.55;;;;;;;24.90;48.25;100751.86;1817344;77;21636;-67
2021/05/02 06:13:39;;;;;;;17.57;12.58;;;;;;;25.01;47.58;100753.23;1817372;79;20943;-66
2021/05/02 06:16:08;;;;;;;14.80;11.63;;;;;;;25.06;47.36;100751.34;1817303;79;20931;-66
2021/05/02 06:18:37;;;;;;;15.68;9.80;;;;;;;25.06;47.31;100756.71;1817300;79;21396;-67
2021/05/02 06:21:05;;;;;;;15.18;9.90;;;;;;;25.02;47.15;100745.53;1817184;78;20938;-68
2021/05/02 06:23:33;;;;;;;14.80;9.78;;;;;;;24.97;46.83;100751.97;1817245;79;20926;-68
2021/05/02 06:26:02;;;;;;;9.93;8.25;;;;;;;24.95;46.69;100744.61;1817291;79;20915;-68
2021/05/02 06:28:32;;;;;;;13.83;9.10;;;;;;;24.88;46.89;100744.98;1817090;79;20923;-68
2021/05/02 06:31:00;;;;;;;20.55;15.28;;;;;;;24.88;46.89;100751.69;1816865;79;21179;-68
2021/05/02 06:33:28;;;;;;;11.35;9.00;;;;;;;24.89;47.32;100750.18;1817255;77;21021;-75
2021/05/02 06:35:57;;;;;;;13.60;9.40;;;;;;;24.91;47.13;100751.34;1817309;77;21018;-75
2021/05/02 06:38:25;;;;;;;14.13;9.20;;;;;;;24.88;47.02;100747.19;1817227;77;20918;-76
2021/05/02 06:40:53;;;;;;;13.20;8.43;;;;;;;24.90;46.99;100746.50;1817278;78;21340;-75
2021/05/02 06:43:22;;;;;;;15.15;8.45;;;;;;;25.00;46.99;100747.05;1817310;77;21288;-74
2021/05/02 06:45:51;;;;;;;12.40;8.18;;;;;;;25.26;46.76;100748.98;1817268;79;20971;-75
2021/05/02 06:48:19;;;;;;;15.23;7.47;;;;;;;25.58;46.58;100742.39;1817236;77;20994;-74
2021/05/02 06:50:47;;;;;;;14.05;8.18;;;;;;;26.01;45.60;100751.91;1817261;77;20958;-74
2021/05/02 06:53:15;;;;;;;8.63;6.90;;;;;;;26.37;45.33;100749.19;1817447;79;21364;-75
2021/05/02 06:55:44;;;;;;;11.80;6.55;;;;;;;26.74;44.53;100756.66;1817336;79;21280;-74
2021/05/02 06:58:13;;;;;;;13.60;7.42;;;;;;;26.94;43.97;100746.56;1817243;79;20950;-74
2021/05/02 07:00:43;;;;;;;9.03;6.78;;;;;;;27.04;42.77;100745.71;1817256;78;20943;-74
2021/05/02 07:03:11;;;;;;;7.33;6.33;;;;;;;27.15;41.91;100740.29;1817338;79;20990;-75
2021/05/02 07:05:41;;;;;;;8.75;6.33;;;;;;;27.27;41.89;100744.11;1817282;77;20990;-74
2021/05/02 07:08:10;;;;;;;8.13;6.58;;;;;;;27.41;41.56;100742.30;1817412;79;22165;-74
2021/05/02 07:10:38;;;;;;;8.83;6.40;;;;;;;27.47;41.40;100745.55;1817224;78;21006;-74
2021/05/02 07:13:06;;;;;;;8.95;5.70;;;;;;;27.57;41.49;100746.52;1817507;78;21374;-82
2021/05/02 07:15:35;;;;;;;9.98;6.12;;;;;;;27.71;41.16;100749.59;1817743;79;20996;-81
2021/05/02 07:18:04;;;;;;;8.60;7.45;;;;;;;27.93;40.74;100740.89;1817633;77;20907;-83
2021/05/02 07:20:33;;;;;;;8.98;8.00;;;;;;;28.14;40.35;100739.88;1817627;78;21342;-84
2021/05/02 07:23:01;;;;;;;12.35;6.72;;;;;;;28.28;40.34;100739.38;1817378;79;21250;-87
2021/05/02 07:25:29;;;;;;;9.18;7.08;;;;;;;28.37;39.92;100735.96;1817283;77;21503;-85
2021/05/02 07:27:57;;;;;;;7.87;6.10;;;;;;;28.31;39.84;100734.94;1817019;79;21077;-83
2021/05/02 07:30:26;;;;;;;20.40;8.20;;;;;;;28.38;39.79;100737.64;1817441;79;21482;-86
2021/05/02 07:32:56;;;;;;;14.83;6.62;;;;;;;28.52;39.50;100729.88;1817433;77;21402;-87
2021/05/02 07:35:25;;;;;;;13.43;7.10;;;;;;;28.76;39.58;100730.30;1817260;77;21504;-83
2021/05/02 07:37:55;;;;;;;12.03;6.92;;;;;;;29.01;38.74;100732.63;1817448;77;20926;-84
2021/05/02 07:40:24;;;;;;;7.50;6.50;;;;;;;29.17;38.68;100725.14;1786422;79;21492;-85
2021/05/02 07:42:52;;;;;;;7.97;6.10;;;;;;;29.37;38.15;100723.73;1817565;79;20998;-82
2021/05/02 07:45:20;;;;;;;8.30;6.75;;;;;;;29.46;37.70;100717.03;1820057;77;21155;-83
2021/05/02 07:47:49;;;;;;;16.32;7.22;;;;;;;29.46;37.73;100718.39;1817760;79;21127;-85
2021/05/02 07:50:18;;;;;;;14.00;5.60;;;;;;;29.44;37.76;100713.75;1817616;79;21018;-85
2021/05/02 07:52:46;;;;;;;6.35;4.58;;;;;;;29.42;37.47;100708.55;1817513;79;21512;-88
2021/05/02 07:55:14;;;;;;;14.80;8.95;;;;;;;29.36;37.69;100703.17;1817442;79;21003;-82
2021/05/02 07:57:42;;;;;;;13.03;7.10;;;;;;;29.33;38.15;100704.43;1817452;78;21345;-83
2021/05/02 08:00:12;;;;;;;16.80;11.08;;;;;;;29.46;37.71;100694.06;1817345;77;20990;-73
2021/05/02 08:02:42;;;;;;;9.15;6.78;;;;;;;29.65;37.73;100701.78;1832283;78;20950;-71
2021/05/02 08:05:11;;;;;;;9.30;6.17;;;;;;;29.83;37.42;100698.39;1832253;77;21541;-77
2021/05/02 08:07:39;;;;;;;12.10;6.95;;;;;;;29.98;37.29;100689.98;1832110;78;20981;-74
2021/05/02 08:10:10;;;;;;;7.17;5.87;;;;;;;30.13;37.80;100694.55;1832289;77;21188;-76
2021/05/02 08:12:38;;;;;;;10.48;5.55;;;;;;;30.32;36.22;100692.76;1832256;77;21045;-76
2021/05/02 08:15:07;;;;;;;7.22;5.45;;;;;;;30.31;35.78;100693.29;1832312;78;20914;-77
2021/05/02 08:17:36;;;;;;;10.15;5.47;;;;;;;30.04;36.14;100699.93;1832257;78;20946;-74
2021/05/02 08:20:08;;;;;;;10.93;8.18;;;;;;;29.69;36.90;100690.87;1832224;77;20878;-81
2021/05/02 08:22:37;;;;;;;10.65;7.25;;;;;;;29.53;37.47;100686.78;1832263;78;22199;-75
2021/05/02 08:25:07;;;;;;;10.55;6.70;;;;;;;29.64;37.34;100683.92;1832244;78;20906;-74
2021/05/02 08:27:35;;;;;;;8.65;6.20;;;;;;;29.77;36.78;100683.88;1832084;78;20914;-75
2021/05/02 08:30:09;;;;;;;7.75;5.55;;;;;;;29.78;36.58;100677.41;1832205;78;20922;-76
2021/05/02 08:32:38;;;;;;;10.35;5.80;;;;;;;29.77;36.06;100675.77;1831831;78;21025;-75
2021/05/02 08:35:09;;;;;;;6.42;5.28;;;;;;;29.65;37.02;100678.28;1832261;78;21367;-74
2021/05/02 08:37:37;;;;;;;12.45;7.33;;;;;;;29.65;37.15;100678.28;1832368;77;20942;-76
2021/05/02 08:40:07;;;;;;;7.10;5.15;;;;;;;29.77;36.44;100679.82;1832746;77;20927;-76
2021/05/02 08:42:34;;;;;;;6.62;5.28;;;;;;;29.74;35.52;100674.30;1834256;78;20922;-75
2021/05/02 08:45:04;;;;;;;7.72;4.55;;;;;;;29.68;35.90;100675.20;1834958;78;20992;-74
2021/05/02 08:47:36;;;;;;;7.47;5.62;;;;;;;29.73;35.28;100668.60;1834999;78;21193;-76
2021/05/02 08:50:10;;;;;;;10.23;5.35;;;;;;;29.83;34.96;100663.23;1835108;77;20923;-77
2021/05/02 08:52:38;;;;;;;13.18;5.00;;;;;;;29.92;35.14;100660.56;1835013;77;21037;-76
2021/05/02 08:55:07;;;;;;;7.22;4.78;;;;;;;30.05;35.14;100661.83;1832484;78;21313;-79
2021/05/02 08:57:36;;;;;;;10.85;5.92;;;;;;;30.13;34.54;100658.03;1832277;77;20894;-78
2021/05/02 09:00:09;;;;;;;11.97;5.03;;;;;;;30.06;34.24;100654.03;1832198;77;21330;-77
2021/05/02 09:02:37;;;;;;;;;;;;;;;29.79;34.39;100646.61;1821742;78;21049;-78
2021/05/02 09:05:07;;;;;;;10.00;4.45;;;;;;;29.64;34.97;100640.14;1817222;78;20434;-79
2021/05/02 09:07:47;;;;;;;6.20;3.60;;;;;;;29.58;35.40;100641.01;1816897;77;21682;-76
2021/05/02 09:10:18;;;;;;;7.05;4.40;;;;;;;29.57;35.31;100647.97;1817217;79;21329;-75
2021/05/02 09:13:01;;;;;;;13.35;5.20;;;;;;;29.55;35.18;100646.33;1817118;79;21428;-76
2021/05/02 09:15:32;;;;;;;4.45;4.05;;;;;;;29.63;34.60;100642.53;1817162;79;21507;-84
2021/05/02 09:18:15;;;;;;;9.35;5.08;;;;;;;29.81;34.56;100643.70;1817343;78;20997;-79
2021/05/02 09:20:48;;;;;;;11.88;6.75;;;;;;;29.82;33.91;100648.08;1815460;77;28343;-78
2021/05/02 09:23:18;;;;;;;10.65;7.20;;;;;;;29.77;33.90;100644.67;1817156;77;21338;-81
2021/05/02 09:25:57;;;;;;;9.35;7.30;;;;;;;29.83;34.11;100637.55;1817469;79;21150;-76
2021/05/02 09:28:43;;;;;;;18.07;8.00;;;;;;;29.77;34.33;100639.27;1816930;78;21449;-79
2021/05/02 09:31:28;;;;;;;18.55;8.83;;;;;;;29.73;34.60;100643.45;1817449;78;20938;-78
2021/05/02 09:34:17;;;;;;;14.35;9.58;;;;;;;29.66;33.91;100639.91;1816785;79;21013;-80
2021/05/02 09:37:04;;;;;;;22.55;10.15;;;;;;;29.36;33.53;100635.09;1817402;77;20930;-77
2021/05/02 09:39:53;;;;;;;15.35;11.08;;;;;;;28.79;34.61;100638.08;1817370;78;21787;-76
2021/05/02 09:42:32;;;;;;;12.07;8.68;;;;;;;28.22;35.63;100640.44;1817283;79;21026;-79
2021/05/02 09:44:57;;;;;;;16.87;9.85;;;;;;;27.74;36.24;100637.34;1816872;78;20922;-77
2021/05/02 09:47:34;;;;;;;16.80;8.55;;;;;;;27.35;36.57;100634.88;1817492;77;20926;-78
2021/05/02 09:50:26;;;;;;;12.28;8.08;;;;;;;27.01;37.26;100624.95;1817544;79;21484;-77
2021/05/02 09:53:03;;;;;;;19.90;9.28;;;;;;;26.64;38.54;100627.05;1817506;77;21254;-77
2021/05/02 09:55:42;;;;;;;19.92;8.73;;;;;;;26.29;40.08;100628.84;1817564;79;21431;-79
2021/05/02 09:58:16;;;;;;;17.15;8.85;;;;;;;26.07;40.62;100626.17;1817383;77;20887;-74
2021/05/02 10:00:53;;;;;;;;;;;;;;;25.90;41.27;100630.14;1820067;79;20914;-75
2021/05/02 10:03:26;;;;;;;25.08;10.18;;;;;;;25.91;41.87;100617.87;1817374;78;20153;-75
2021/05/02 10:06:03;;;;;;;23.95;11.25;;;;;;;26.12;41.61;100616.17;1817245;79;20899;-76
2021/05/02 10:08:35;;;;;;;10.98;8.70;;;;;;;26.31;41.91;100618.20;1817203;79;20974;-74
2021/05/02 10:11:05;;;;;;;26.70;10.85;;;;;;;26.45;40.82;100627.19;1817318;79;20938;-75
2021/05/02 10:13:34;;;;;;;11.88;9.58;;;;;;;26.45;40.61;100615.91;1817233;79;20915;-74
2021/05/02 10:16:03;;;;;;;9.65;7.15;;;;;;;26.42;39.28;100614.14;1817351;78;20931;-76
2021/05/02 10:18:32;;;;;;;15.25;8.13;;;;;;;26.32;38.98;100609.09;1817370;78;21186;-74
2021/05/02 10:21:02;;;;;;;14.60;7.08;;;;;;;26.24;40.27;100605.23;1817222;77;21002;-75
2021/05/02 10:23:30;;;;;;;11.03;6.75;;;;;;;26.27;40.81;100603.48;1817363;79;21029;-74
2021/05/02 10:25:59;;;;;;;12.43;6.15;;;;;;;26.25;39.05;100605.53;1817306;79;21431;-76
2021/05/02 10:28:29;;;;;;;12.05;6.95;;;;;;;26.16;38.75;100592.74;1817384;77;20871;-74
2021/05/02 10:30:59;;;;;;;10.75;6.55;;;;;;;26.11;39.18;100594.38;1817466;77;22416;-73
2021/05/02 10:33:38;;;;;;;11.65;8.80;;;;;;;26.11;39.64;100591.68;1817633;78;20895;-74
2021/05/02 10:36:11;;;;;;;8.28;6.60;;;;;;;26.12;40.26;100586.09;1818993;79;20935;-74
2021/05/02 10:39:00;;;;;;;12.60;6.10;;;;;;;26.09;40.20;100581.63;1818117;79;21856;-72
2021/05/02 10:41:38;;;;;;;8.55;6.50;;;;;;;26.01;40.20;100586.63;1815127;79;20998;-75
2021/05/02 10:44:16;;;;;;;10.70;5.75;;;;;;;25.92;41.16;100580.55;1819018;77;21052;-74
2021/05/02 10:46:57;;;;;;;16.40;7.30;;;;;;;25.82;41.01;100577.34;1819842;79;20929;-74
2021/05/02 10:49:31;;;;;;;13.32;7.03;;;;;;;25.67;41.49;100573.38;1817898;79;20922;-75
2021/05/02 10:52:29;;;;;;;18.32;8.68;;;;;;;25.59;42.28;100568.98;1817323;77;21005;-73
2021/05/02 10:55:13;;;;;;;12.20;7.58;;;;;;;25.54;41.92;100570.05;1817364;77;21049;-76
2021/05/02 10:57:41;;;;;;;7.20;6.12;;;;;;;25.49;41.94;100557.72;1817436;78;22359;-75
2021/05/02 11:00:12;;;;;;;11.48;6.87;;;;;;;25.43;41.94;100555.79;1817260;78;21504;-73
2021/05/02 11:02:45;;;;;;;9.03;5.77;;;;;;;25.33;42.15;100557.97;1825488;77;20966;-73
2021/05/02 11:05:18;;;;;;;7.28;5.15;;;;;;;25.23;42.68;100559.61;1829696;77;21475;-73
2021/05/02 11:07:48;;;;;;;11.33;5.95;;;;;;;25.13;42.85;100556.38;1830003;77;20930;-75
2021/05/02 11:10:17;;;;;;;6.20;5.00;;;;;;;25.01;43.33;100558.70;1829716;78;21364;-73
2021/05/02 11:12:49;;;;;;;6.47;5.37;;;;;;;24.91;42.46;100552.30;1829682;78;20934;-71
2021/05/02 11:15:32;;;;;;;7.97;6.22;;;;;;;24.81;42.18;100559.80;1829718;77;21026;-73
2021/05/02 11:18:01;;;;;;;;;;;;;;;24.74;42.20;100554.34;1832391;77;20918;-74
2021/05/02 11:20:51;;;;;;;9.90;5.83;;;;;;;24.70;41.27;100541.49;1829690;78;20152;-74
2021/05/02 11:24:00;;;;;;;10.20;7.65;;;;;;;24.65;41.77;100549.28;1829719;77;21179;-73
2021/05/02 11:29:30;;;;;;;11.08;5.33;;;;;;;24.78;42.08;100535.52;1829676;78;20981;-74
2021/05/02 11:31:57;;;;;;;6.53;4.58;;;;;;;24.83;41.28;100528.25;1829685;78;20930;-74
2021/05/02 11:34:25;;;;;;;9.80;5.35;;;;;;;24.82;40.91;100526.08;1829865;78;20890;-72
2021/05/02 11:36:54;;;;;;;9.25;4.80;;;;;;;24.83;41.27;100529.59;1829720;77;21859;-71